createdAt,value
2019-04-11T00:00:33.400Z,3.85
2019-04-11T00:01:39.462Z,3.79
2019-04-11T00:02:34.371Z,3.78
2019-04-11T00:03:33.571Z,3.67
2019-04-11T00:04:34.387Z,3.75
2019-04-11T00:05:33.338Z,3.71
2019-04-11T00:06:33.829Z,3.72
2019-04-11T00:07:33.312Z,3.83
2019-04-11T00:08:34.185Z,3.71
2019-04-11T00:09:34.442Z,3.72
2019-04-11T00:10:33.416Z,3.65
2019-04-11T00:11:33.599Z,3.72
2019-04-11T00:12:33.270Z,3.60
2019-04-11T00:13:35.186Z,3.70
2019-04-11T00:14:33.239Z,3.65
2019-04-11T00:15:33.227Z,3.67
2019-04-11T00:16:33.216Z,3.68
2019-04-11T00:17:34.195Z,3.64
2019-04-11T00:18:33.205Z,3.68
2019-04-11T00:19:33.645Z,3.65
2019-04-11T00:20:33.871Z,3.65
2019-04-11T00:21:33.163Z,3.70
2019-04-11T00:22:33.346Z,3.70
2019-04-11T00:23:34.156Z,3.67
2019-04-11T00:24:33.139Z,3.62
2019-04-11T00:25:33.756Z,3.68
2019-04-11T00:26:33.107Z,3.60
2019-04-11T00:27:33.096Z,3.71
2019-04-11T00:28:34.030Z,3.62
2019-04-11T00:29:33.077Z,3.67
2019-04-11T00:30:33.077Z,3.64
2019-04-11T00:31:33.054Z,3.65
2019-04-11T00:32:33.767Z,3.65
2019-04-11T00:33:33.988Z,3.67
2019-04-11T00:34:33.137Z,3.61
2019-04-11T00:35:33.597Z,3.65
2019-04-11T00:36:33.008Z,3.67
2019-04-11T00:37:32.989Z,3.67
2019-04-11T00:38:34.111Z,3.60
2019-04-11T00:39:32.967Z,3.61
2019-04-11T00:40:33.288Z,3.65
2019-04-11T00:41:34.208Z,3.64
2019-04-11T00:42:32.952Z,3.52
2019-04-11T00:43:37.632Z,3.50
2019-04-11T00:44:34.741Z,3.58
2019-04-11T00:45:33.809Z,3.58
2019-04-11T00:46:32.892Z,3.58
2019-04-11T00:47:33.191Z,3.53
2019-04-11T00:48:33.502Z,3.60
2019-04-11T00:49:32.859Z,3.62
2019-04-11T00:50:32.848Z,3.53
2019-04-11T00:51:33.863Z,3.57
2019-04-11T00:52:33.628Z,3.44
2019-04-11T00:53:33.993Z,3.44
2019-04-11T00:54:33.168Z,3.42
2019-04-11T00:55:32.796Z,3.44
2019-04-11T00:56:32.785Z,3.52
2019-04-11T00:57:32.825Z,3.43
2019-04-11T00:58:33.860Z,3.47
2019-04-11T00:59:32.751Z,3.39
2019-04-11T01:00:33.354Z,3.44
2019-04-11T01:01:33.674Z,3.46
2019-04-11T01:02:33.657Z,3.34
2019-04-11T01:03:33.825Z,3.46
2019-04-11T01:04:32.804Z,3.43
2019-04-11T01:05:33.817Z,3.46
2019-04-11T01:06:32.690Z,3.43
2019-04-11T01:07:33.173Z,3.43
2019-04-11T01:08:32.656Z,3.42
2019-04-11T01:09:32.731Z,3.46
2019-04-11T01:10:32.632Z,3.34
2019-04-11T01:11:32.621Z,3.31
2019-04-11T01:12:32.623Z,3.34
2019-04-11T01:13:42.508Z,3.34
2019-04-11T01:14:34.196Z,3.42
2019-04-11T01:15:32.582Z,3.34
2019-04-11T01:16:32.652Z,3.46
2019-04-11T01:17:33.593Z,3.33
2019-04-11T01:18:32.559Z,3.36
2019-04-11T01:19:33.019Z,3.34
2019-04-11T01:20:32.525Z,3.31
2019-04-11T01:21:32.820Z,3.25
2019-04-11T01:22:32.504Z,3.34
2019-04-11T01:23:33.238Z,3.36
2019-04-11T01:24:33.616Z,3.25
2019-04-11T01:25:32.702Z,3.30
2019-04-11T01:26:33.004Z,3.24
2019-04-11T01:27:32.448Z,3.21
2019-04-11T01:28:32.448Z,3.23
2019-04-11T01:29:33.463Z,3.20
2019-04-11T01:30:33.303Z,3.21
2019-04-11T01:31:32.421Z,3.20
2019-04-11T01:32:32.594Z,3.23
2019-04-11T01:33:32.404Z,3.15
2019-04-11T01:34:32.926Z,3.10
2019-04-11T01:35:33.197Z,3.09
2019-04-11T01:36:33.223Z,3.07
2019-04-11T01:37:33.452Z,3.18
2019-04-11T01:38:32.531Z,3.09
2019-04-11T01:39:32.793Z,3.09
2019-04-11T01:40:32.324Z,3.09
2019-04-11T01:41:32.300Z,3.07
2019-04-11T01:42:33.370Z,3.07
2019-04-11T01:43:32.504Z,3.03
2019-04-11T01:44:32.541Z,3.12
2019-04-11T01:45:32.272Z,3.02
2019-04-11T01:46:32.255Z,3.03
2019-04-11T01:47:32.976Z,3.02
2019-04-11T01:48:33.319Z,2.94
2019-04-11T01:49:32.400Z,3.09
2019-04-11T01:50:32.871Z,2.95
2019-04-11T01:51:32.196Z,2.95
2019-04-11T01:52:32.182Z,3.02
2019-04-11T01:53:33.143Z,2.94
2019-04-11T01:54:32.251Z,2.97
2019-04-11T01:55:32.576Z,2.94
2019-04-11T01:56:32.142Z,2.85
2019-04-11T01:57:32.132Z,2.88
2019-04-11T01:58:32.975Z,2.85
2019-04-11T01:59:32.295Z,2.88
2019-04-11T02:00:32.306Z,2.91
2019-04-11T02:01:32.673Z,2.94
2019-04-11T02:02:32.700Z,2.91
2019-04-11T02:03:33.099Z,2.92
2019-04-11T02:04:32.126Z,2.88
2019-04-11T02:05:32.811Z,2.87
2019-04-11T02:06:32.075Z,2.84
2019-04-11T02:07:32.025Z,2.88
2019-04-11T02:08:32.015Z,2.81
2019-04-11T02:09:32.444Z,2.82
2019-04-11T02:10:32.882Z,2.81
2019-04-11T02:11:31.983Z,2.81
2019-04-11T02:12:32.028Z,2.84
2019-04-11T02:13:32.195Z,2.79
2019-04-11T02:14:31.952Z,2.84
2019-04-11T02:15:32.412Z,2.73
2019-04-11T02:16:32.748Z,2.77
2019-04-11T02:17:32.855Z,2.79
2019-04-11T02:18:31.921Z,2.73
2019-04-11T02:19:32.194Z,2.82
2019-04-11T02:20:31.889Z,2.70
2019-04-11T02:21:31.880Z,2.74
2019-04-11T02:22:32.748Z,2.73
2019-04-11T02:23:32.018Z,2.73
2019-04-11T02:24:32.107Z,2.76
2019-04-11T02:25:32.349Z,2.73
2019-04-11T02:26:31.826Z,2.74
2019-04-11T02:27:32.701Z,2.69
2019-04-11T02:28:32.826Z,2.69
2019-04-11T02:29:31.793Z,2.69
2019-04-11T02:30:31.794Z,2.79
2019-04-11T02:31:32.603Z,2.70
2019-04-11T02:32:32.042Z,2.76
2019-04-11T02:33:32.934Z,2.64
2019-04-11T02:34:31.755Z,2.64
2019-04-11T02:35:31.766Z,2.61
2019-04-11T02:36:33.744Z,2.59
2019-04-11T02:37:33.468Z,2.58
2019-04-11T02:38:32.640Z,2.56
2019-04-11T02:39:33.795Z,2.61
2019-04-11T02:40:32.699Z,2.61
2019-04-11T02:41:33.506Z,2.59
2019-04-11T02:42:33.015Z,2.58
2019-04-11T02:43:32.089Z,2.61
2019-04-11T02:44:46.076Z,2.64
2019-04-11T02:45:45.200Z,2.59
2019-04-11T02:46:42.451Z,2.58
2019-04-11T02:47:35.153Z,2.58
2019-04-11T02:48:33.008Z,2.49
2019-04-11T02:49:32.929Z,2.61
2019-04-11T02:50:32.134Z,2.55
2019-04-11T02:51:31.562Z,2.52
2019-04-11T02:52:33.186Z,2.53
2019-04-11T02:53:32.724Z,2.52
2019-04-11T02:54:33.536Z,2.49
2019-04-11T02:55:31.717Z,2.49
2019-04-11T02:56:33.457Z,2.52
2019-04-11T02:57:32.217Z,2.52
2019-04-11T02:58:31.875Z,2.48
2019-04-11T02:59:31.491Z,2.53
2019-04-11T03:00:33.088Z,2.46
2019-04-11T03:01:31.941Z,2.41
2019-04-11T03:02:32.702Z,2.37
2019-04-11T03:03:31.993Z,2.45
2019-04-11T03:04:31.671Z,2.45
2019-04-11T03:05:34.510Z,2.45
2019-04-11T03:06:33.259Z,2.41
2019-04-11T03:07:31.975Z,2.44
2019-04-11T03:08:34.108Z,2.41
2019-04-11T03:09:31.806Z,2.48
2019-04-11T03:10:33.504Z,2.45
2019-04-11T03:11:32.518Z,2.35
2019-04-11T03:12:31.968Z,2.41
2019-04-11T03:13:33.200Z,2.44
2019-04-11T03:14:46.252Z,2.34
2019-04-11T03:15:48.329Z,2.33
2019-04-11T03:16:42.675Z,2.40
2019-04-11T03:17:36.870Z,2.33
2019-04-11T03:18:52.872Z,2.41
2019-04-11T03:19:44.182Z,2.35
2019-04-11T03:20:39.243Z,2.38
2019-04-11T03:21:36.687Z,2.37
2019-04-11T03:22:32.693Z,2.33
2019-04-11T03:23:31.703Z,2.34
2019-04-11T03:24:33.250Z,2.30
2019-04-11T03:25:33.011Z,2.26
2019-04-11T03:26:31.261Z,2.30
2019-04-11T03:27:32.529Z,2.20
2019-04-11T03:28:33.046Z,2.31
2019-04-11T03:29:33.331Z,2.23
2019-04-11T03:30:46.510Z,2.23
2019-04-11T03:32:13.954Z,2.23
2019-04-11T03:33:18.286Z,2.23
2019-04-11T03:36:28.375Z,2.31
2019-04-11T03:37:55.210Z,2.35
2019-04-11T03:38:58.773Z,2.23
2019-04-11T03:39:53.864Z,2.35
2019-04-11T03:40:52.024Z,2.40
2019-04-11T03:41:51.846Z,2.28
2019-04-11T03:42:43.336Z,2.37
2019-04-11T03:43:42.021Z,2.34
2019-04-11T03:44:39.528Z,2.34
2019-04-11T03:45:47.922Z,2.34
2019-04-11T03:46:48.199Z,2.34
2019-04-11T03:47:47.594Z,2.26
2019-04-11T03:48:43.743Z,2.23
2019-04-11T03:49:43.255Z,2.30
2019-04-11T03:50:32.888Z,2.20
2019-04-11T03:51:31.267Z,2.20
2019-04-11T03:52:32.629Z,2.23
2019-04-11T03:53:32.483Z,2.27
2019-04-11T03:54:31.822Z,2.22
2019-04-11T03:55:32.454Z,2.27
2019-04-11T03:56:30.874Z,2.28
2019-04-11T03:57:31.867Z,2.27
2019-04-11T03:58:31.242Z,2.17
2019-04-11T03:59:31.442Z,2.16
2019-04-11T04:00:35.944Z,2.22
2019-04-11T04:01:32.576Z,2.19
2019-04-11T04:02:32.335Z,2.15
2019-04-11T04:03:31.107Z,2.22
2019-04-11T04:04:30.788Z,2.13
2019-04-11T04:05:36.187Z,2.17
2019-04-11T04:06:33.031Z,2.16
2019-04-11T04:07:31.967Z,2.10
2019-04-11T04:08:31.449Z,2.17
2019-04-11T04:09:30.745Z,2.13
2019-04-11T04:10:31.792Z,2.16
2019-04-11T04:11:32.641Z,2.13
2019-04-11T04:12:31.437Z,2.10
2019-04-11T04:13:31.935Z,2.16
2019-04-11T04:14:32.448Z,2.17
2019-04-11T04:15:41.033Z,1.98
2019-04-11T04:16:40.148Z,2.19
2019-04-11T04:17:32.956Z,2.12
2019-04-11T04:18:31.777Z,2.17
2019-04-11T04:19:32.686Z,2.12
2019-04-11T04:20:30.728Z,2.10
2019-04-11T04:21:31.152Z,2.12
2019-04-11T04:22:31.477Z,2.10
2019-04-11T04:23:31.458Z,2.10
2019-04-11T04:24:34.806Z,2.08
2019-04-11T04:25:32.515Z,2.08
2019-04-11T04:26:31.317Z,2.08
2019-04-11T04:27:32.195Z,2.08
2019-04-11T04:28:31.745Z,1.98
2019-04-11T04:29:32.317Z,2.09
2019-04-11T04:30:30.513Z,2.04
2019-04-11T04:31:30.777Z,1.94
2019-04-11T04:32:32.294Z,2.08
2019-04-11T04:33:31.458Z,1.97
2019-04-11T04:34:31.608Z,1.90
2019-04-11T04:35:31.684Z,1.82
2019-04-11T04:36:30.911Z,1.76
2019-04-11T04:37:31.971Z,1.80
2019-04-11T04:38:31.561Z,1.85
2019-04-11T04:39:31.365Z,1.76
2019-04-11T04:40:47.964Z,1.76
2019-04-11T04:41:39.266Z,1.78
2019-04-11T04:42:37.051Z,1.87
2019-04-11T04:43:32.191Z,1.68
2019-04-11T04:44:31.717Z,1.75
2019-04-11T04:45:49.732Z,1.73
2019-04-11T04:46:47.345Z,1.72
2019-04-11T04:47:39.507Z,1.83
2019-04-11T04:48:32.362Z,1.61
2019-04-11T04:49:32.213Z,1.79
2019-04-11T04:50:30.931Z,1.73
2019-04-11T04:51:31.170Z,1.76
2019-04-11T04:52:31.889Z,1.68
2019-04-11T04:53:30.980Z,1.83
2019-04-11T04:54:30.817Z,1.82
2019-04-11T04:55:30.504Z,1.79
2019-04-11T04:56:32.216Z,1.78
2019-04-11T04:57:31.756Z,1.76
2019-04-11T04:58:31.677Z,1.78
2019-04-11T04:59:31.836Z,1.71
2019-04-11T05:00:32.005Z,1.73
2019-04-11T05:01:31.566Z,1.76
2019-04-11T05:02:30.963Z,1.79
2019-04-11T05:03:31.840Z,1.69
2019-04-11T05:04:31.690Z,1.71
2019-04-11T05:05:31.047Z,1.72
2019-04-11T05:06:30.123Z,1.60
2019-04-11T05:07:34.145Z,1.65
2019-04-11T05:08:32.552Z,1.69
2019-04-11T05:09:30.092Z,1.65
2019-04-11T05:10:30.694Z,1.72
2019-04-11T05:11:30.566Z,1.72
2019-04-11T05:12:30.354Z,1.65
2019-04-11T05:13:30.295Z,1.65
2019-04-11T05:14:31.434Z,1.65
2019-04-11T05:15:30.159Z,1.72
2019-04-11T05:16:30.033Z,1.75
2019-04-11T05:17:30.007Z,1.73
2019-04-11T05:18:29.997Z,1.72
2019-04-11T05:19:30.062Z,1.71
2019-04-11T05:20:30.212Z,1.75
2019-04-11T05:21:29.960Z,1.71
2019-04-11T05:22:30.978Z,1.69
2019-04-11T05:23:29.943Z,1.78
2019-04-11T05:24:30.481Z,1.75
2019-04-11T05:25:30.629Z,1.75
2019-04-11T05:26:29.919Z,1.87
2019-04-11T05:27:29.896Z,1.79
2019-04-11T05:28:29.885Z,1.80
2019-04-11T05:29:29.874Z,1.89
2019-04-11T05:30:29.864Z,2.04
2019-04-11T05:31:30.325Z,2.02
2019-04-11T05:32:29.852Z,2.19
2019-04-11T05:33:29.839Z,2.13
2019-04-11T05:34:29.820Z,2.33
2019-04-11T05:35:29.951Z,2.34
2019-04-11T05:36:30.417Z,2.45
2019-04-11T05:37:29.790Z,2.52
2019-04-11T05:38:29.792Z,2.82
2019-04-11T05:39:29.769Z,2.85
2019-04-11T05:40:30.104Z,2.94
2019-04-11T05:41:29.747Z,3.06
2019-04-11T05:42:29.735Z,3.15
2019-04-11T05:43:35.902Z,3.05
2019-04-11T05:44:30.724Z,3.03
2019-04-11T05:45:29.703Z,3.09
2019-04-11T05:46:35.352Z,3.12
2019-04-11T05:47:31.719Z,3.23
2019-04-11T05:48:30.539Z,3.39
2019-04-11T05:49:35.137Z,3.42
2019-04-11T05:50:31.929Z,3.44
2019-04-11T05:51:36.875Z,3.43
2019-04-11T05:52:32.224Z,3.46
2019-04-11T05:53:32.747Z,3.52
2019-04-11T05:54:29.607Z,3.47
2019-04-11T05:55:30.169Z,3.20
2019-04-11T05:56:29.932Z,3.03
2019-04-11T05:57:35.299Z,2.87
2019-04-11T05:58:30.563Z,2.74
2019-04-11T05:59:30.611Z,2.58
2019-04-11T06:00:30.492Z,2.56
2019-04-11T06:01:30.741Z,2.66
2019-04-11T06:02:29.543Z,2.85
2019-04-11T06:03:30.254Z,3.07
2019-04-11T06:04:30.243Z,3.03
2019-04-11T06:05:32.405Z,3.03
2019-04-11T06:06:36.078Z,2.94
2019-04-11T06:07:30.477Z,2.87
2019-04-11T06:08:30.792Z,2.91
2019-04-11T06:09:32.963Z,2.94
2019-04-11T06:10:30.433Z,3.10
2019-04-11T06:11:30.538Z,3.34
2019-04-11T06:12:29.656Z,3.40
2019-04-11T06:13:29.410Z,3.34
2019-04-11T06:14:29.388Z,3.44
2019-04-11T06:15:29.377Z,3.50
2019-04-11T06:16:37.020Z,3.65
2019-04-11T06:17:30.357Z,3.47
2019-04-11T06:18:33.018Z,3.25
2019-04-11T06:19:30.580Z,3.36
2019-04-11T06:20:29.331Z,3.49
2019-04-11T06:21:29.313Z,3.58
2019-04-11T06:22:29.723Z,3.76
2019-04-11T06:23:29.616Z,4.07
2019-04-11T06:24:29.286Z,4.19
2019-04-11T06:25:30.882Z,4.33
2019-04-11T06:26:30.411Z,4.40
2019-04-11T06:27:30.375Z,4.51
2019-04-11T06:28:30.637Z,4.47
2019-04-11T06:29:29.920Z,4.28
2019-04-11T06:30:30.409Z,4.12
2019-04-11T06:31:29.821Z,4.15
2019-04-11T06:32:29.910Z,4.26
2019-04-11T06:33:29.188Z,4.34
2019-04-11T06:34:30.325Z,4.04
2019-04-11T06:35:30.245Z,3.89
2019-04-11T06:36:30.109Z,4.14
2019-04-11T06:37:29.796Z,4.26
2019-04-11T06:38:30.275Z,4.36
2019-04-11T06:39:29.471Z,4.51
2019-04-11T06:40:29.267Z,4.61
2019-04-11T06:41:29.102Z,4.95
2019-04-11T06:42:30.185Z,4.95
2019-04-11T06:43:29.088Z,4.89
2019-04-11T06:44:30.052Z,4.94
2019-04-11T06:45:29.390Z,4.96
2019-04-11T06:46:29.305Z,5.13
2019-04-11T06:47:29.238Z,5.25
2019-04-11T06:48:29.682Z,5.23
2019-04-11T06:49:29.027Z,5.22
2019-04-11T06:50:29.151Z,5.13
2019-04-11T06:51:30.203Z,5.04
2019-04-11T06:52:28.985Z,5.05
2019-04-11T06:53:30.087Z,5.28
2019-04-11T06:54:28.960Z,5.45
2019-04-11T06:55:29.061Z,5.30
2019-04-11T06:56:29.362Z,5.37
2019-04-11T06:57:30.010Z,5.55
2019-04-11T06:58:29.710Z,5.52
2019-04-11T06:59:29.131Z,5.49
2019-04-11T07:00:29.303Z,5.60
2019-04-11T07:01:29.961Z,5.70
2019-04-11T07:02:29.894Z,5.81
2019-04-11T07:03:30.438Z,5.81
2019-04-11T07:04:29.464Z,5.71
2019-04-11T07:05:29.029Z,5.55
2019-04-11T07:06:29.413Z,5.40
2019-04-11T07:07:30.513Z,5.25
2019-04-11T07:08:29.974Z,5.40
2019-04-11T07:09:28.830Z,5.41
2019-04-11T07:10:28.786Z,5.41
2019-04-11T07:11:28.792Z,5.52
2019-04-11T07:12:28.764Z,5.55
2019-04-11T07:13:28.767Z,5.73
2019-04-11T07:14:29.163Z,5.82
2019-04-11T07:15:29.404Z,5.68
2019-04-11T07:16:29.659Z,5.50
2019-04-11T07:17:29.652Z,5.56
2019-04-11T07:18:29.103Z,5.52
2019-04-11T07:19:28.746Z,5.50
2019-04-11T07:20:29.304Z,5.64
2019-04-11T07:21:28.666Z,5.86
2019-04-11T07:22:28.656Z,5.82
2019-04-11T07:23:28.649Z,5.77
2019-04-11T07:24:28.635Z,5.89
2019-04-11T07:25:28.949Z,6.00
2019-04-11T07:26:29.456Z,5.98
2019-04-11T07:27:28.603Z,6.09
2019-04-11T07:28:29.471Z,6.16
2019-04-11T07:29:29.233Z,6.19
2019-04-11T07:30:28.931Z,6.32
2019-04-11T07:31:29.871Z,6.47
2019-04-11T07:32:29.774Z,6.68
2019-04-11T07:33:28.932Z,6.44
2019-04-11T07:34:32.744Z,6.53
2019-04-11T07:35:29.515Z,6.54
2019-04-11T07:36:29.574Z,6.44
2019-04-11T07:37:28.503Z,6.14
2019-04-11T07:38:29.409Z,6.16
2019-04-11T07:39:28.933Z,6.40
2019-04-11T07:40:29.341Z,6.71
2019-04-11T07:41:29.738Z,7.05
2019-04-11T07:42:28.442Z,6.90
2019-04-11T07:43:29.220Z,6.66
2019-04-11T07:44:30.163Z,6.58
2019-04-11T07:45:28.406Z,6.68
2019-04-11T07:46:28.962Z,6.59
2019-04-11T07:47:29.480Z,6.76
2019-04-11T07:48:29.210Z,6.81
2019-04-11T07:49:28.582Z,6.97
2019-04-11T07:50:28.350Z,7.01
2019-04-11T07:51:28.539Z,7.05
2019-04-11T07:52:31.362Z,6.94
2019-04-11T07:53:28.603Z,6.81
2019-04-11T07:54:28.309Z,6.95
2019-04-11T07:55:28.308Z,6.97
2019-04-11T07:56:29.420Z,6.94
2019-04-11T07:57:28.493Z,6.86
2019-04-11T07:58:28.620Z,6.97
2019-04-11T07:59:29.481Z,7.05
2019-04-11T08:00:38.857Z,7.05
2019-04-11T08:01:29.465Z,7.22
2019-04-11T08:02:29.036Z,7.29
2019-04-11T08:03:28.213Z,7.34
2019-04-11T08:04:28.238Z,7.32
2019-04-11T08:05:28.192Z,7.32
2019-04-11T08:06:28.828Z,7.32
2019-04-11T08:07:28.249Z,7.32
2019-04-11T08:08:28.157Z,7.22
2019-04-11T08:09:29.011Z,7.20
2019-04-11T08:10:29.358Z,7.19
2019-04-11T08:11:28.126Z,7.24
2019-04-11T08:12:28.115Z,7.38
2019-04-11T08:13:28.381Z,7.37
2019-04-11T08:14:28.690Z,7.40
2019-04-11T08:15:29.298Z,7.35
2019-04-11T08:16:28.950Z,7.17
2019-04-11T08:17:37.059Z,7.13
2019-04-11T08:18:29.060Z,7.07
2019-04-11T08:19:28.876Z,7.38
2019-04-11T08:20:29.091Z,7.49
2019-04-11T08:21:28.283Z,7.40
2019-04-11T08:22:28.010Z,7.23
2019-04-11T08:23:27.996Z,7.22
2019-04-11T08:24:28.879Z,7.50
2019-04-11T08:25:29.226Z,7.63
2019-04-11T08:26:28.306Z,7.69
2019-04-11T08:27:27.952Z,7.56
2019-04-11T08:28:28.964Z,7.66
2019-04-11T08:29:28.632Z,7.77
2019-04-11T08:30:27.926Z,7.66
2019-04-11T08:31:28.831Z,7.53
2019-04-11T08:32:27.895Z,7.52
2019-04-11T08:33:28.800Z,7.49
2019-04-11T08:34:29.090Z,7.50
2019-04-11T08:35:28.356Z,7.74
2019-04-11T08:36:27.859Z,7.93
2019-04-11T08:37:27.838Z,8.12
2019-04-11T08:38:28.778Z,7.87
2019-04-11T08:39:29.006Z,7.67
2019-04-11T08:40:28.132Z,7.56
2019-04-11T08:41:27.798Z,7.71
2019-04-11T08:42:27.792Z,7.67
2019-04-11T08:43:28.933Z,7.78
2019-04-11T08:44:28.059Z,8.10
2019-04-11T08:45:27.749Z,8.12
2019-04-11T08:46:28.879Z,8.36
2019-04-11T08:47:40.154Z,8.42
2019-04-11T08:48:28.924Z,8.26
2019-04-11T08:49:29.943Z,7.96
2019-04-11T08:50:28.284Z,7.96
2019-04-11T08:51:27.683Z,8.02
2019-04-11T08:52:27.944Z,7.84
2019-04-11T08:53:28.808Z,7.74
2019-04-11T08:54:27.661Z,7.63
2019-04-11T08:55:27.638Z,7.60
2019-04-11T08:56:28.529Z,7.59
2019-04-11T08:57:27.616Z,7.60
2019-04-11T08:58:28.763Z,7.66
2019-04-11T08:59:27.596Z,8.02
2019-04-11T09:00:28.262Z,8.00
2019-04-11T09:01:27.794Z,8.08
2019-04-11T09:02:27.563Z,8.02
2019-04-11T09:03:27.553Z,7.90
2019-04-11T09:04:27.544Z,7.97
2019-04-11T09:05:27.533Z,8.07
2019-04-11T09:06:28.420Z,8.11
2019-04-11T09:07:27.624Z,8.29
2019-04-11T09:08:27.498Z,8.42
2019-04-11T09:09:27.601Z,8.66
2019-04-11T09:10:28.270Z,8.60
2019-04-11T09:11:28.719Z,8.54
2019-04-11T09:12:28.718Z,8.58
2019-04-11T09:13:27.446Z,8.78
2019-04-11T09:14:28.440Z,8.71
2019-04-11T09:15:28.642Z,8.69
2019-04-11T09:16:27.772Z,8.84
2019-04-11T09:17:28.243Z,8.90
2019-04-11T09:18:28.104Z,8.99
2019-04-11T09:19:27.382Z,9.05
2019-04-11T09:20:27.658Z,8.90
2019-04-11T09:21:28.531Z,8.84
2019-04-11T09:22:27.345Z,8.99
2019-04-11T09:23:27.923Z,8.96
2019-04-11T09:24:27.387Z,8.84
2019-04-11T09:25:28.645Z,9.04
2019-04-11T09:26:27.729Z,8.84
2019-04-11T09:27:27.290Z,8.57
2019-04-11T09:28:27.279Z,8.60
2019-04-11T09:29:28.362Z,8.62
2019-04-11T09:30:28.495Z,8.57
2019-04-11T09:31:27.591Z,8.66
2019-04-11T09:32:28.490Z,8.71
2019-04-11T09:33:27.232Z,8.62
2019-04-11T09:34:28.052Z,8.81
2019-04-11T09:35:27.202Z,8.84
2019-04-11T09:36:28.969Z,8.73
2019-04-11T09:37:27.461Z,8.62
2019-04-11T09:38:27.172Z,8.60
2019-04-11T09:39:27.156Z,8.71
2019-04-11T09:40:28.033Z,8.58
2019-04-11T09:41:28.184Z,8.65
2019-04-11T09:42:28.308Z,8.78
2019-04-11T09:43:28.209Z,8.97
2019-04-11T09:44:27.102Z,8.93
2019-04-11T09:45:27.757Z,8.83
2019-04-11T09:46:27.230Z,8.81
2019-04-11T09:47:28.254Z,8.96
2019-04-11T09:48:27.070Z,8.87
2019-04-11T09:49:27.165Z,8.91
2019-04-11T09:50:27.041Z,8.99
2019-04-11T09:51:29.215Z,9.06
2019-04-11T09:52:27.030Z,9.16
2019-04-11T09:53:28.186Z,9.09
2019-04-11T09:54:28.184Z,9.15
2019-04-11T09:55:26.981Z,9.38
2019-04-11T09:56:27.113Z,9.34
2019-04-11T09:57:26.963Z,9.32
2019-04-11T09:58:27.532Z,8.78
2019-04-11T09:59:27.248Z,8.78
2019-04-11T10:00:28.397Z,8.48
2019-04-11T10:01:26.916Z,8.30
2019-04-11T10:02:27.514Z,8.28
2019-04-11T10:03:27.872Z,8.26
2019-04-11T10:04:27.642Z,8.35
2019-04-11T10:05:26.872Z,8.48
2019-04-11T10:06:28.021Z,8.66
2019-04-11T10:07:28.115Z,8.62
2019-04-11T10:08:26.851Z,8.57
2019-04-11T10:09:28.140Z,8.58
2019-04-11T10:10:26.828Z,8.57
2019-04-11T10:11:28.139Z,8.44
2019-04-11T10:12:27.642Z,8.15
2019-04-11T10:13:26.970Z,8.15
2019-04-11T10:14:26.780Z,8.12
2019-04-11T10:15:27.223Z,8.15
2019-04-11T10:16:26.752Z,8.11
2019-04-11T10:17:26.977Z,8.26
2019-04-11T10:18:32.209Z,8.36
2019-04-11T10:19:27.837Z,8.45
2019-04-11T10:20:26.885Z,8.45
2019-04-11T10:21:26.697Z,8.55
2019-04-11T10:22:27.107Z,8.39
2019-04-11T10:23:27.066Z,8.57
2019-04-11T10:24:26.680Z,8.53
2019-04-11T10:25:28.325Z,8.57
2019-04-11T10:26:27.707Z,8.58
2019-04-11T10:27:26.800Z,8.60
2019-04-11T10:28:27.326Z,8.57
2019-04-11T10:29:29.833Z,8.63
2019-04-11T10:30:26.610Z,8.58
2019-04-11T10:31:26.587Z,8.63
2019-04-11T10:32:27.517Z,8.48
2019-04-11T10:33:26.680Z,8.54
2019-04-11T10:34:27.842Z,8.55
2019-04-11T10:35:26.544Z,8.50
2019-04-11T10:36:27.381Z,8.51
2019-04-11T10:37:27.556Z,8.54
2019-04-11T10:38:26.665Z,8.50
2019-04-11T10:39:27.149Z,8.57
2019-04-11T10:40:26.496Z,8.60
2019-04-11T10:41:26.477Z,8.72
2019-04-11T10:42:26.790Z,8.55
2019-04-11T10:43:26.695Z,8.47
2019-04-11T10:44:26.719Z,8.39
2019-04-11T10:45:26.837Z,8.37
2019-04-11T10:46:27.140Z,8.44
2019-04-11T10:47:27.065Z,8.39
2019-04-11T10:48:34.508Z,8.37
2019-04-11T10:49:28.405Z,8.39
2019-04-11T10:50:26.383Z,8.28
2019-04-11T10:51:26.470Z,8.28
2019-04-11T10:52:26.640Z,8.14
2019-04-11T10:53:26.979Z,8.08
2019-04-11T10:54:26.353Z,8.22
2019-04-11T10:55:27.369Z,8.26
2019-04-11T10:56:26.484Z,8.35
2019-04-11T10:57:26.305Z,8.37
2019-04-11T10:58:26.817Z,8.36
2019-04-11T10:59:27.814Z,8.39
2019-04-11T11:00:27.278Z,8.35
2019-04-11T11:01:26.710Z,8.44
2019-04-11T11:02:26.251Z,8.62
2019-04-11T11:03:27.351Z,8.69
2019-04-11T11:04:27.490Z,8.69
2019-04-11T11:05:26.340Z,8.66
2019-04-11T11:06:27.399Z,8.68
2019-04-11T11:07:26.744Z,8.81
2019-04-11T11:08:26.184Z,8.55
2019-04-11T11:09:26.321Z,8.60
2019-04-11T11:10:26.167Z,8.65
2019-04-11T11:11:26.176Z,8.79
2019-04-11T11:12:27.309Z,8.72
2019-04-11T11:13:26.130Z,8.84
2019-04-11T11:14:26.958Z,8.75
2019-04-11T11:15:27.359Z,8.76
2019-04-11T11:16:28.809Z,8.62
2019-04-11T11:17:47.137Z,8.45
2019-04-11T11:18:53.100Z,8.39
2019-04-11T11:19:43.656Z,8.44
2019-04-11T11:20:33.736Z,8.50
2019-04-11T11:21:30.594Z,8.47
2019-04-11T11:22:27.370Z,8.50
2019-04-11T11:23:26.863Z,8.48
2019-04-11T11:24:26.122Z,8.51
2019-04-11T11:25:26.743Z,8.48
2019-04-11T11:26:26.560Z,8.36
2019-04-11T11:27:26.562Z,8.44
2019-04-11T11:28:25.989Z,8.33
2019-04-11T11:29:26.622Z,8.39
2019-04-11T11:30:27.088Z,8.44
2019-04-11T11:31:25.935Z,8.45
2019-04-11T11:32:27.278Z,8.57
2019-04-11T11:33:26.604Z,8.48
2019-04-11T11:34:25.902Z,8.58
2019-04-11T11:35:29.420Z,8.55
2019-04-11T11:36:26.895Z,8.48
2019-04-11T11:37:25.903Z,8.54
2019-04-11T11:38:26.096Z,8.55
2019-04-11T11:39:26.900Z,8.57
2019-04-11T11:40:25.982Z,8.60
2019-04-11T11:41:25.824Z,8.60
2019-04-11T11:42:26.173Z,8.65
2019-04-11T11:43:25.802Z,8.53
2019-04-11T11:44:25.795Z,8.54
2019-04-11T11:45:25.780Z,8.57
2019-04-11T11:46:29.541Z,8.73
2019-04-11T11:47:27.849Z,8.71
2019-04-11T11:48:26.356Z,8.84
2019-04-11T11:49:41.475Z,8.79
2019-04-11T11:50:26.862Z,8.88
2019-04-11T11:51:29.225Z,8.99
2019-04-11T11:52:26.855Z,9.04
2019-04-11T11:53:27.314Z,8.99
2019-04-11T11:54:25.730Z,8.87
2019-04-11T11:55:25.700Z,8.91
2019-04-11T11:56:26.260Z,8.78
2019-04-11T11:57:26.647Z,8.86
2019-04-11T11:58:25.792Z,9.04
2019-04-11T11:59:25.640Z,9.12
2019-04-11T12:00:25.618Z,9.18
2019-04-11T12:01:25.608Z,9.06
2019-04-11T12:02:26.391Z,8.94
2019-04-11T12:03:28.382Z,8.87
2019-04-11T12:04:26.171Z,8.84
2019-04-11T12:05:26.772Z,8.91
2019-04-11T12:06:25.554Z,8.90
2019-04-11T12:07:25.558Z,8.91
2019-04-11T12:08:25.532Z,8.79
2019-04-11T12:09:26.598Z,8.72
2019-04-11T12:10:26.118Z,8.69
2019-04-11T12:11:26.314Z,8.84
2019-04-11T12:12:25.489Z,8.86
2019-04-11T12:13:26.221Z,8.78
2019-04-11T12:14:25.471Z,8.87
2019-04-11T12:15:27.242Z,8.86
2019-04-11T12:16:25.938Z,8.96
2019-04-11T12:17:25.445Z,8.94
2019-04-11T12:18:26.727Z,8.90
2019-04-11T12:19:26.766Z,8.79
2019-04-11T12:20:25.402Z,8.79
2019-04-11T12:21:28.060Z,8.90
2019-04-11T12:22:25.380Z,8.97
2019-04-11T12:23:25.971Z,8.79
2019-04-11T12:24:25.391Z,8.84
2019-04-11T12:25:25.359Z,8.94
2019-04-11T12:26:28.760Z,8.86
2019-04-11T12:27:26.806Z,8.84
2019-04-11T12:28:25.671Z,8.94
2019-04-11T12:29:25.333Z,8.87
2019-04-11T12:30:29.740Z,8.91
2019-04-11T12:31:26.285Z,9.02
2019-04-11T12:32:25.335Z,9.06
2019-04-11T12:33:25.707Z,9.16
2019-04-11T12:34:26.091Z,9.12
2019-04-11T12:35:26.304Z,8.84
2019-04-11T12:36:26.365Z,8.88
2019-04-11T12:37:25.365Z,9.05
2019-04-11T12:38:25.275Z,9.13
2019-04-11T12:39:25.425Z,9.01
2019-04-11T12:40:25.188Z,9.13
2019-04-11T12:41:25.187Z,8.86
2019-04-11T12:42:25.166Z,8.83
2019-04-11T12:43:25.155Z,8.83
2019-04-11T12:44:26.744Z,8.97
2019-04-11T12:45:25.133Z,9.04
2019-04-11T12:46:29.778Z,9.05
2019-04-11T12:47:26.121Z,9.10
2019-04-11T12:48:25.165Z,8.97
2019-04-11T12:49:25.093Z,8.96
2019-04-11T12:50:25.096Z,9.09
2019-04-11T12:51:25.067Z,8.99
2019-04-11T12:52:25.058Z,8.90
2019-04-11T12:53:25.058Z,8.99
2019-04-11T12:54:25.036Z,8.81
2019-04-11T12:55:25.024Z,8.90
2019-04-11T12:56:25.016Z,9.01
2019-04-11T12:57:25.003Z,9.15
2019-04-11T12:58:24.992Z,9.16
2019-04-11T12:59:24.992Z,9.21
2019-04-11T13:00:24.970Z,9.34
2019-04-11T13:01:24.962Z,9.34
2019-04-11T13:02:24.950Z,9.24
2019-04-11T13:03:24.939Z,9.25
2019-04-11T13:04:24.929Z,9.38
2019-04-11T13:05:24.933Z,9.42
2019-04-11T13:06:34.815Z,9.45
2019-04-11T13:07:25.895Z,9.45
2019-04-11T13:08:24.893Z,9.34
2019-04-11T13:09:24.888Z,9.27
2019-04-11T13:10:24.862Z,9.35
2019-04-11T13:11:24.860Z,9.38
2019-04-11T13:12:24.844Z,9.32
2019-04-11T13:13:24.830Z,9.40
2019-04-11T13:14:24.817Z,9.32
2019-04-11T13:15:24.806Z,9.27
2019-04-11T13:16:24.800Z,9.43
2019-04-11T13:17:24.795Z,9.39
2019-04-11T13:18:24.773Z,9.20
2019-04-11T13:19:26.012Z,9.23
2019-04-11T13:20:24.751Z,9.27
2019-04-11T13:21:24.741Z,9.35